Wallaceburg, Canada
Current Conditions -  °F | °C
As of 8:31 AM on Sunday 23 Nov 2014 (Local Time) from KMTC Reporting Station
Overcast Overcast  
Wind Chill: 40°   Ceiling: 3800
Heat Index: 45°   Visibility: 7mi
Dew Point: 45°   Wind: 9mph
Humidity: 100%   Direction: 170°S
Pressure: 29.9"   Gusts: NA
Location:  42.58°N, 82.37°W
Report Text: KMTC 231331Z 17008KT 7SM SCT025 OVC038 07/07 A2990 RMK SCT025 V BKN
Loading
Personal Weather Stations






























Interactive Weather Map New forecast layout! Learn more

10-Day Weather Forecast

Advertisements
Track Severe Weather on mobile